• Join FlightAware (Why Join?)
  • Login
  • US Flag 
06:46AM EDT


 

Airport Tracker/Info


-or-


 

Live Flight TrackerFlight Track Log ✈ AWE2706 ✈ 17-Apr-2013 ✈ KCLT - KMHT

Flight Track Log - Related Links

Times and Time Zones

All times are in EDT time to prevent confusion due to time zone crossing. See the AWE2706 flight status page for this flight to view local times or setup timezone preferences in your user account.

Time Position Orientation Groundspeed Altitude Reporting Facility
EDT Latitude Longitude Course Direction KTS MPH feet Rate Location/Type
02:22PM 35.1908 -80.9356 72° East 174 200 1,400  Level Atlanta Center
02:23PM 35.1100 -80.8778 150° Southeast 271 312 4,300 2,280 Climbing Atlanta Center
02:25PM 35.2447 -80.5348 30° Northeast  Level FlightAware Approximate
02:25PM 35.1486 -80.7594 68° East 276 318 8,300  Level Atlanta Center
02:26PM 35.3355 -80.4585 72° East  Level FlightAware Approximate
02:26PM 35.1903 -80.6764 58° Northeast 276 318 10,600  Level Atlanta Center
02:27PM 35.3726 -80.3179 72° East  Level FlightAware Approximate
02:28PM 35.2756 -80.4819 62° Northeast 331 381 14,300  Level Washington Center
02:29PM 35.3281 -80.3731 59° Northeast 356 410 16,500 2,040 Climbing Washington Center
02:30PM 35.3806 -80.2617 60° Northeast 361 415 18,400 1,740 Climbing Washington Center
02:31PM 35.4289 -80.1422 64° Northeast 379 436 20,000 1,680 Climbing Washington Center
02:32PM 35.4650 -80.0142 71° East 388 447 21,800 1,740 Climbing Washington Center
02:33PM 35.4992 -79.8808 72° East 398 458 23,500 1,500 Climbing Washington Center
02:34PM 35.5353 -79.7422 72° East 408 470 24,800 1,440 Climbing Washington Center
02:35PM 35.5783 -79.5836 72° East 419 482 26,400 1,320 Climbing Washington Center
02:36PM 35.6097 -79.4550 73° East 435 501 27,500 960 Climbing Washington Center
02:37PM 35.6619 -79.3169 65° Northeast 435 501 28,400 1,200 Climbing Washington Center
02:38PM 35.7186 -79.1761 64° Northeast 447 514 30,000 1,440 Climbing Washington Center
02:39PM 35.7747 -79.0381 63° Northeast 452 520 31,300 1,200 Climbing Washington Center
02:40PM 35.8286 -78.9019 64° Northeast 452 520 32,400 840 Climbing Washington Center
02:41PM 35.8867 -78.7608 63° Northeast 452 520 33,000 300 Climbing Washington Center
02:42PM 35.9528 -78.6250 59° Northeast 452 520 33,000 420 Level Washington Center
02:43PM 36.0275 -78.4711 59° Northeast 465 535 33,900 960 Climbing Washington Center
02:44PM 36.0933 -78.3347 59° Northeast 465 535 35,000 540 Climbing Washington Center
02:45PM 36.1611 -78.1931 59° Northeast 460 529 35,000  Level Washington Center
02:46PM 36.2289 -78.0483 60° Northeast 466 536 35,000  Level Washington Center
02:47PM 36.2986 -77.9036 59° Northeast 476 548 35,000  Level Washington Center
02:48PM 36.3658 -77.7614 60° Northeast 476 548 35,000  Level Washington Center
02:49PM 36.4311 -77.6158 61° Northeast 482 555 35,000  Level Washington Center
02:50PM 36.4981 -77.4703 60° Northeast 482 555 35,000  Level Washington Center
02:51PM 36.5692 -77.3247 59° Northeast 482 555 35,000  Level Washington Center
02:52PM 36.6381 -77.1786 60° Northeast 482 555 35,000  Level Washington Center
02:53PM 36.7064 -77.0375 59° Northeast 482 555 35,000  Level Washington Center
02:54PM 36.8036 -76.9278 42° Northeast 464 534 35,000  Level Washington Center
02:55PM 36.9069 -76.8361 35° Northeast 458 527 35,000  Level Washington Center
02:56PM 37.0122 -76.7442 35° Northeast 458 527 35,000  Level Washington Center
02:57PM 37.1131 -76.6494 37° Northeast 458 527 35,000  Level Washington Center
02:58PM 37.2056 -76.5644 36° Northeast 458 527 35,000  Level Washington Center
02:59PM 37.3086 -76.4717 36° Northeast 458 527 35,000  Level Washington Center
03:00PM 37.4114 -76.3789 36° Northeast 458 527 35,000  Level Washington Center
03:01PM 37.5100 -76.2883 36° Northeast 453 521 35,000  Level Washington Center
03:02PM 37.6128 -76.1947 36° Northeast 453 521 35,000  Level Washington Center
03:03PM 37.7153 -76.1089 34° Northeast 453 521 35,000  Level Washington Center
03:04PM 37.8136 -76.0072 39° Northeast 448 516 35,000  Level Washington Center
03:05PM 37.9142 -75.9128 37° Northeast 448 516 35,000  Level Washington Center
03:06PM 38.0206 -75.8211 34° Northeast 454 522 35,000  Level Washington Center
03:07PM 38.1231 -75.7158 39° Northeast 460 529 35,000  Level Washington Center
03:08PM 38.2294 -75.6181 36° Northeast 460 529 35,000  Level Washington Center
03:09PM 38.3503 -75.5175 33° Northeast 467 537 35,000  Level Washington Center
03:10PM 38.4669 -75.4672 19° North 451 519 35,000  Level Washington Center
03:11PM 38.5878 -75.4111 20° North 451 519 35,000  Level Washington Center
03:12PM 38.7067 -75.3575 19° North 451 519 35,000  Level Washington Center
03:13PM 38.8275 -75.3011 20° North 445 512 35,000  Level Washington Center
03:14PM 38.9356 -75.2128 32° Northeast 445 512 35,000  Level Washington Center
03:15PM 39.0436 -75.1239 33° Northeast 457 526 35,000  Level Washington Center
03:16PM 39.1456 -75.0375 33° Northeast 450 518 35,000  Level Washington Center
03:17PM 39.2514 -74.9483 33° Northeast 450 518 35,000  Level Washington Center
03:18PM 39.3611 -74.8561 33° Northeast 450 518 35,000  Level Washington Center
03:20PM 39.6233 -74.6869 26° Northeast 451 519 35,000  Level New York Center
03:21PM 39.7347 -74.6581 11° North 446 513 35,000  Level New York Center
03:22PM 39.8714 -74.6197 12° North 451 519 35,000  Level New York Center
03:23PM 39.9831 -74.5906 11° North 451 519 35,000  Level New York Center
03:24PM 40.1197 -74.5519 12° North 451 519 35,000  Level New York Center
03:25PM 40.2439 -74.5153 13° North 452 520 35,000  Level New York Center
03:26PM 40.3658 -74.4811 12° North 452 520 35,000  Level New York Center
03:27PM 40.4897 -74.4494 11° North 452 520 35,000  Level New York Center
03:28PM 40.6094 -74.4150 12° North 452 520 35,000  Level New York Center
03:30PM 40.7958 -74.3703 10° North 436 502 35,000  Level Boston Center
03:31PM 40.9111 -74.3378 12° North 429 494 35,000  Level Boston Center
03:32PM 41.0219 -74.3053 12° North 418 481 35,000  Level Boston Center
03:33PM 41.1331 -74.2756 11° North 412 474 35,000  Level Boston Center
03:34PM 41.2586 -74.2350 14° North 412 474 35,000  Level Boston Center
03:35PM 41.3717 -74.2022 12° North 412 474 35,000  Level Boston Center
03:36PM 41.4931 -74.1667 12° North 423 487 35,000 -660 Level Boston Center
03:37PM 41.6042 -74.1364 12° North 437 503 33,700 -1,320 Descending Boston Center
03:38PM 41.7108 -74.1003 14° North 422 486 32,500 -1,320 Descending Boston Center
03:39PM 41.8017 -74.0192 34° Northeast 396 456 31,200 -1,200 Descending Boston Center
03:40PM 41.8700 -73.9067 51° Northeast 416 479 30,100 -1,440 Descending Boston Center
03:41PM 41.9656 -73.7411 52° Northeast 442 509 28,400 -1,080 Descending Boston Center
03:42PM 42.0442 -73.6086 51° Northeast 452 520 28,000 -240 Descending Boston Center
03:43PM 42.1289 -73.4647 52° Northeast 464 534 28,000  Level Boston Center
03:44PM 42.2050 -73.3342 52° Northeast 464 534 28,000 -420 Level Boston Center
03:45PM 42.2875 -73.1894 52° Northeast 464 534 27,200 -1,380 Descending Boston Center
03:46PM 42.3781 -73.0247 53° Northeast 482 555 25,300 -1,800 Descending Boston Center
03:47PM 42.4558 -72.8847 53° Northeast 477 549 23,600 -1,740 Descending Boston Center
03:48PM 42.5333 -72.7528 51° Northeast 470 541 21,900 -2,160 Descending Boston Center
03:49PM 42.6150 -72.6236 49° Northeast 457 526 19,400 -6,360 Descending Boston Center
03:50PM 42.6839 -72.4939 54° Northeast 433 498 9,000 -2,340 Descending Boston Center
03:51PM 42.7506 -72.3750 53° Northeast 412 474 14,700 1,740 Climbing Boston Center
03:52PM 42.8003 -72.2364 64° Northeast 407 468 12,500 -2,400 Descending Boston Center
03:53PM 42.8103 -72.0778 85° East 408 470 10,000 -1,320 Descending Boston Center
03:54PM 42.8161 -71.9447 87° East 389 448 9,900 -1,140 Descending Boston Center
03:55PM 42.8072 -71.8261 96° East 321 369 7,800 -1,980 Descending Boston Center
03:56PM 42.8025 -71.7186 93° East 301 346 5,900 -1,740 Descending Boston Center
03:57PM 42.7975 -71.6167 94° East 270 311 4,000 -1,020 Descending Boston Center
03:58PM 42.7906 -71.5261 96° East 236 272 3,700 -480 Descending Boston Center
03:59PM 42.7961 -71.4414 85° East 208 239 3,100 -600 Descending Boston Center
04:00PM 42.8144 -71.3844 66° East 188 216 2,500 -660 Descending Boston Center
04:01PM 42.8561 -71.3892 355° North 133 153 1,800 -720 Descending Boston Center